Time;durP1;ratioP1;P1;durP2;ratioP2;P2;SDS_P1;SDS_P2;PMS_P1;PMS_P2;Temp;Humidity;BMP_temperature;BMP_pressure;BME280_temperature;BME280_humidity;BME280_pressure;Samples;Min_cycle;Max_cycle;Signal;HPM_P1;HPM_P2
2022/05/21 00:01:30;;;;;;;13.30;6.00;;;;;;;19.59;50.27;99644.32;109746;1273;22384;-78
2022/05/21 00:03:57;;;;;;;13.70;6.20;;;;;;;19.59;50.42;99649.54;109699;1271;22346;-78
2022/05/21 00:06:23;;;;;;;9.70;6.40;;;;;;;19.57;50.53;99645.86;109872;1270;23019;-78
2022/05/21 00:08:49;;;;;;;7.70;5.60;;;;;;;19.58;50.56;99646.17;109888;1270;22481;-77
2022/05/21 00:11:15;;;;;;;12.70;5.50;;;;;;;19.60;50.63;99637.52;109881;1270;22330;-77
2022/05/21 00:13:42;;;;;;;12.90;5.70;;;;;;;19.60;50.73;99628.75;109888;1270;22340;-79
2022/05/21 00:16:08;;;;;;;9.50;5.80;;;;;;;19.62;50.74;99623.42;109783;1270;22321;-78
2022/05/21 00:18:34;;;;;;;14.10;5.30;;;;;;;19.64;51.04;99622.98;109805;1270;22383;-79
2022/05/21 00:21:01;;;;;;;10.00;5.10;;;;;;;19.65;51.33;99626.14;109791;1271;22152;-78
2022/05/21 00:23:30;;;;;;;7.20;4.80;;;;;;;19.65;51.62;99627.56;109778;1271;22449;-78
2022/05/21 00:26:03;;;;;;;9.30;5.20;;;;;;;19.60;51.34;99623.02;109774;1273;23075;-77
2022/05/21 00:28:30;;;;;;;11.50;5.30;;;;;;;19.56;51.22;99613.08;109844;1270;22303;-77
2022/05/21 00:30:57;;;;;;;12.60;5.20;;;;;;;19.52;51.16;99607.40;109904;1270;23053;-75
2022/05/21 00:33:25;;;;;;;5.50;4.60;;;;;;;19.52;51.32;99606.55;109624;1276;22491;-77
2022/05/21 00:35:51;;;;;;;7.50;5.20;;;;;;;19.51;51.78;99599.80;109656;1276;23111;-76
2022/05/21 00:38:18;;;;;;;12.00;4.60;;;;;;;19.52;52.22;99589.90;109584;1276;22556;-75
2022/05/21 00:40:45;;;;;;;9.40;5.40;;;;;;;19.51;52.47;99571.91;109517;1277;22488;-75
2022/05/21 00:43:33;;;;;;;7.60;5.10;;;;;;;19.46;52.93;99561.02;109610;1276;22462;-77
2022/05/21 00:46:00;;;;;;;10.40;5.20;;;;;;;19.48;53.53;99576.96;109555;1276;22343;-75
2022/05/21 00:48:26;;;;;;;9.30;5.00;;;;;;;19.46;54.05;99618.46;109550;1276;22364;-77
2022/05/21 00:50:53;;;;;;;8.90;4.90;;;;;;;19.38;54.61;99687.32;109641;1271;23283;-77
2022/05/21 00:53:20;;;;;;;6.90;4.80;;;;;;;19.10;56.05;99728.48;109889;1270;22486;-77
2022/05/21 00:55:49;;;;;;;9.20;4.90;;;;;;;18.76;57.85;99744.05;109769;1273;22357;-77
2022/05/21 01:01:06;;;;;;;10.10;5.30;;;;;;;18.01;61.12;99724.84;109896;1271;22983;-75
2022/05/21 01:03:32;;;;;;;6.40;5.30;;;;;;;17.78;61.75;99723.88;109571;1276;22658;-76
2022/05/21 01:10:27;;;;;;;7.10;6.10;;;;;;;17.25;63.96;99675.51;109549;1277;22327;-76
2022/05/21 01:12:56;;;;;;;6.10;5.00;;;;;;;17.10;64.76;99653.46;109487;1277;22360;-75
2022/05/21 01:19:25;;;;;;;7.30;6.20;;;;;;;17.00;65.82;99615.87;109452;1276;22451;-74
2022/05/21 01:21:51;;;;;;;7.90;6.60;;;;;;;17.01;66.18;99598.94;109707;1274;22323;-74
2022/05/21 01:24:18;;;;;;;10.10;6.20;;;;;;;17.01;66.23;99571.85;109813;1270;22419;-76
2022/05/21 01:26:44;;;;;;;8.80;6.90;;;;;;;17.06;66.42;99550.99;109874;1269;22360;-75
2022/05/21 01:29:24;;;;;;;10.10;6.70;;;;;;;17.17;66.74;99551.73;109912;1271;22446;-75
2022/05/21 01:31:53;;;;;;;9.80;7.50;;;;;;;17.28;66.74;99579.86;109855;1271;22400;-74
2022/05/21 01:34:20;;;;;;;8.10;6.90;;;;;;;17.37;66.78;99571.76;109923;1271;22439;-74
2022/05/21 01:36:47;;;;;;;8.30;7.30;;;;;;;17.36;66.87;99561.29;109872;1270;22479;-76
2022/05/21 01:39:14;;;;;;;9.70;6.80;;;;;;;17.42;67.09;99544.64;109899;1271;22331;-75
2022/05/21 01:41:42;;;;;;;7.80;7.00;;;;;;;17.50;67.34;99536.56;109839;1271;22508;-76
2022/05/21 01:46:53;;;;;;;12.20;8.10;;;;;;;17.63;67.65;99538.04;109862;1271;23071;-75
2022/05/21 01:49:19;;;;;;;11.80;7.70;;;;;;;17.69;67.57;99529.16;109913;1271;22313;-76
2022/05/21 01:51:45;;;;;;;10.40;7.60;;;;;;;17.73;67.60;99520.98;109921;1270;22639;-77
2022/05/21 01:54:12;;;;;;;8.30;7.50;;;;;;;17.72;67.65;99503.38;109842;1271;22396;-76
2022/05/21 01:56:38;;;;;;;11.50;7.80;;;;;;;17.69;67.97;99484.98;109915;1271;22411;-76
2022/05/21 01:59:04;;;;;;;10.30;7.10;;;;;;;17.75;68.07;99472.44;109713;1273;22564;-78
2022/05/21 02:01:31;;;;;;;11.90;8.00;;;;;;;17.81;67.64;99474.93;109786;1271;22346;-76
2022/05/21 02:03:58;;;;;;;10.10;8.20;;;;;;;17.72;67.29;99469.89;109857;1271;22209;-76
2022/05/21 02:06:24;;;;;;;10.40;8.60;;;;;;;17.63;67.80;99463.26;109870;1271;22966;-76
2022/05/21 02:08:50;;;;;;;11.30;8.60;;;;;;;17.54;68.24;99450.89;109860;1271;23166;-75
2022/05/21 02:11:16;;;;;;;9.20;8.20;;;;;;;17.49;68.41;99435.69;109672;1274;22386;-78
2022/05/21 02:13:43;;;;;;;10.00;7.90;;;;;;;17.50;68.77;99430.45;109777;1273;23103;-76
2022/05/21 02:16:09;;;;;;;12.10;8.00;;;;;;;17.56;68.94;99429.45;109808;1270;22348;-76
2022/05/21 02:18:36;;;;;;;11.40;7.80;;;;;;;17.64;69.02;99428.85;109881;1270;22466;-77
2022/05/21 02:21:03;;;;;;;10.90;8.70;;;;;;;17.65;69.12;99422.72;109875;1270;22473;-78
2022/05/21 02:23:29;;;;;;;10.90;8.50;;;;;;;17.66;68.97;99418.96;109833;1273;22428;-76
2022/05/21 02:26:02;;;;;;;11.40;9.50;;;;;;;17.63;68.87;99410.20;109824;1271;22329;-76
2022/05/21 02:28:29;;;;;;;9.70;8.70;;;;;;;17.61;69.09;99399.66;109871;1270;23078;-77
2022/05/21 02:30:55;;;;;;;9.40;7.30;;;;;;;17.62;69.01;99393.35;109894;1270;22432;-77
2022/05/21 02:33:22;;;;;;;14.80;8.70;;;;;;;17.66;69.36;99396.00;109876;1269;22368;-76
2022/05/21 02:35:48;;;;;;;11.40;8.90;;;;;;;17.66;69.40;99396.14;109753;1273;22349;-77
2022/05/21 02:40:59;;;;;;;14.20;9.50;;;;;;;17.68;69.45;99397.65;109815;1270;22395;-77
2022/05/21 02:43:25;;;;;;;12.60;9.70;;;;;;;17.63;69.50;99395.98;109706;1273;22459;-78
2022/05/21 02:45:51;;;;;;;12.30;9.80;;;;;;;17.64;69.53;99406.58;109798;1270;22477;-74
2022/05/21 02:48:18;;;;;;;11.20;8.90;;;;;;;17.65;69.67;99414.03;109772;1273;22449;-75
2022/05/21 02:50:44;;;;;;;12.80;9.80;;;;;;;17.62;69.72;99422.90;109788;1270;22324;-75
2022/05/21 02:53:18;;;;;;;10.00;8.80;;;;;;;17.64;69.91;99424.75;109701;1273;23110;-75
2022/05/21 02:55:46;;;;;;;11.70;10.20;;;;;;;17.68;69.79;99427.17;109883;1270;22491;-75
2022/05/21 02:58:13;;;;;;;13.60;9.10;;;;;;;17.65;70.08;99423.29;109669;1273;22374;-75
2022/05/21 03:00:39;;;;;;;11.80;9.50;;;;;;;17.63;70.06;99416.08;109798;1270;22445;-75
2022/05/21 03:03:05;;;;;;;13.50;9.40;;;;;;;17.61;70.19;99410.70;109888;1270;22259;-75
2022/05/21 03:05:32;;;;;;;17.10;10.70;;;;;;;17.64;70.45;99413.02;109821;1273;22355;-76
2022/05/21 03:08:00;;;;;;;12.60;10.40;;;;;;;17.67;70.49;99415.29;109763;1270;22373;-75
2022/05/21 03:10:30;;;;;;;11.30;10.20;;;;;;;17.67;70.43;99414.79;109851;1270;22540;-75
2022/05/21 03:13:01;;;;;;;13.30;10.50;;;;;;;17.60;70.54;99415.71;109650;1273;22409;-76
2022/05/21 03:15:38;;;;;;;10.80;9.50;;;;;;;17.61;70.74;99414.23;109827;1270;22323;-75
2022/05/21 03:18:09;;;;;;;11.60;9.30;;;;;;;17.62;70.72;99412.57;109710;1272;23141;-74
2022/05/21 03:20:35;;;;;;;11.70;10.30;;;;;;;17.60;70.91;99407.72;109847;1270;22336;-74
2022/05/21 03:23:02;;;;;;;12.00;9.90;;;;;;;17.61;70.79;99401.23;109831;1270;23209;-75
2022/05/21 03:25:29;;;;;;;11.20;9.90;;;;;;;17.53;70.50;99403.08;109757;1272;22332;-73
2022/05/21 03:27:55;;;;;;;12.30;10.80;;;;;;;17.49;71.08;99394.59;109759;1271;22355;-76
2022/05/21 03:30:25;;;;;;;13.30;10.00;;;;;;;17.48;71.17;99389.09;109872;1270;22334;-76
2022/05/21 03:32:54;;;;;;;11.90;10.40;;;;;;;17.50;71.56;99388.14;109901;1270;23091;-80
2022/05/21 03:35:21;;;;;;;11.80;10.20;;;;;;;17.52;71.74;99389.64;109824;1273;22342;-79
2022/05/21 03:37:48;;;;;;;11.70;10.50;;;;;;;17.52;71.87;99391.92;109835;1271;22413;-79
2022/05/21 03:40:22;;;;;;;13.00;10.50;;;;;;;17.53;71.85;99389.02;109800;1270;22357;-77
2022/05/21 03:42:48;;;;;;;14.60;12.00;;;;;;;17.49;71.54;99382.26;109780;1271;23151;-78
2022/05/21 03:45:15;;;;;;;12.60;11.20;;;;;;;17.38;71.76;99374.70;109883;1270;22300;-79
2022/05/21 03:47:43;;;;;;;12.00;10.80;;;;;;;17.33;72.02;99374.58;109784;1273;22249;-78
2022/05/21 03:50:12;;;;;;;12.80;11.10;;;;;;;17.37;72.15;99378.67;109713;1271;23045;-78
2022/05/21 03:52:39;;;;;;;14.10;10.80;;;;;;;17.45;72.60;99396.39;109745;1271;22432;-78
2022/05/21 03:55:06;;;;;;;12.70;11.30;;;;;;;17.42;72.21;99404.18;109752;1271;22364;-77
2022/05/21 03:57:33;;;;;;;14.00;12.00;;;;;;;17.36;72.50;99402.58;109873;1270;22338;-77
2022/05/21 03:59:59;;;;;;;13.90;11.60;;;;;;;17.33;72.64;99399.48;109776;1270;22382;-78
2022/05/21 04:02:26;;;;;;;11.10;9.70;;;;;;;17.33;72.98;99403.27;109846;1271;23054;-77
2022/05/21 04:04:53;;;;;;;11.20;10.10;;;;;;;17.28;72.90;99412.95;109882;1270;22880;-75
2022/05/21 04:07:20;;;;;;;12.50;11.30;;;;;;;17.13;72.94;99411.06;109817;1271;23041;-76
2022/05/21 04:09:48;;;;;;;13.90;11.40;;;;;;;17.10;73.46;99388.80;109874;1270;22671;-76
2022/05/21 04:12:15;;;;;;;11.60;10.50;;;;;;;17.07;73.43;99373.59;109740;1273;22444;-75
2022/05/21 04:14:41;;;;;;;11.50;10.30;;;;;;;17.01;73.66;99387.61;109779;1270;22339;-76
2022/05/21 04:17:13;;;;;;;11.40;10.00;;;;;;;17.07;73.88;99385.54;109838;1271;22318;-76
2022/05/21 04:19:41;;;;;;;12.80;11.70;;;;;;;17.16;74.07;99381.91;109906;1270;22339;-76
2022/05/21 04:22:08;;;;;;;13.90;12.40;;;;;;;17.19;73.91;99383.14;109871;1270;22440;-76
2022/05/21 04:24:34;;;;;;;14.80;11.00;;;;;;;17.16;73.66;99385.79;109812;1271;22415;-76
2022/05/21 04:27:00;;;;;;;12.00;10.80;;;;;;;17.05;73.74;99385.45;109744;1272;22515;-76
2022/05/21 04:29:26;;;;;;;12.90;10.30;;;;;;;16.98;74.11;99387.95;109796;1270;22884;-77
2022/05/21 04:31:53;;;;;;;11.90;9.60;;;;;;;16.97;74.34;99387.83;109777;1271;22461;-76
2022/05/21 04:34:19;;;;;;;11.20;10.00;;;;;;;16.96;74.13;99394.80;109889;1270;22314;-76
2022/05/21 04:36:45;;;;;;;12.30;11.00;;;;;;;16.93;74.29;99390.70;109753;1270;22324;-77
2022/05/21 04:39:12;;;;;;;12.10;10.90;;;;;;;16.99;74.43;99393.44;109825;1270;22441;-77
2022/05/21 04:41:38;;;;;;;9.40;8.50;;;;;;;16.99;74.26;99396.08;109837;1270;22418;-77
2022/05/21 04:44:07;;;;;;;12.30;10.20;;;;;;;16.88;73.93;99392.00;109904;1270;22228;-77
2022/05/21 04:46:35;;;;;;;12.60;11.30;;;;;;;16.76;74.64;99398.83;109919;1270;22332;-75
2022/05/21 04:49:02;;;;;;;11.70;9.50;;;;;;;16.67;75.04;99397.48;109834;1270;23123;-77
2022/05/21 04:51:34;;;;;;;11.20;10.00;;;;;;;16.53;75.05;99386.29;109793;1270;23026;-76
2022/05/21 04:54:00;;;;;;;9.00;8.20;;;;;;;16.54;75.45;99391.73;109798;1270;22411;-76
2022/05/21 04:56:27;;;;;;;12.60;8.40;;;;;;;16.52;75.82;99392.02;109890;1270;23121;-75
2022/05/21 04:59:05;;;;;;;11.60;10.50;;;;;;;16.47;75.76;99391.91;109679;1272;22388;-76
2022/05/21 05:01:31;;;;;;;10.60;9.50;;;;;;;16.50;76.05;99390.19;109824;1272;22314;-76
2022/05/21 05:03:58;;;;;;;8.70;7.90;;;;;;;16.51;75.80;99385.84;109733;1273;22218;-75
2022/05/21 05:06:26;;;;;;;10.20;9.20;;;;;;;16.52;75.89;99386.70;109889;1270;22621;-76
2022/05/21 05:08:52;;;;;;;10.60;9.60;;;;;;;16.50;76.19;99385.56;109886;1270;22312;-76
2022/05/21 05:11:18;;;;;;;10.30;9.30;;;;;;;16.55;76.31;99387.11;109858;1272;22385;-75
2022/05/21 05:13:45;;;;;;;13.60;9.30;;;;;;;16.65;76.34;99390.33;109736;1270;23168;-77
2022/05/21 05:16:11;;;;;;;12.60;9.80;;;;;;;16.64;76.14;99389.14;109866;1270;22508;-77
2022/05/21 05:18:37;;;;;;;9.90;8.90;;;;;;;16.63;76.26;99386.52;109781;1270;22369;-82
2022/05/21 05:21:04;;;;;;;13.40;10.50;;;;;;;16.59;76.28;99388.30;109790;1270;22417;-85
2022/05/21 05:23:30;;;;;;;11.20;10.10;;;;;;;16.56;76.39;99389.32;109712;1270;23038;-84
2022/05/21 05:25:59;;;;;;;10.10;9.10;;;;;;;16.56;76.24;99391.80;109785;1270;22334;-85
2022/05/21 05:28:27;;;;;;;9.70;8.80;;;;;;;16.48;76.27;99386.35;109879;1270;22334;-84
2022/05/21 05:30:54;;;;;;;12.00;10.10;;;;;;;16.43;76.60;99391.38;109841;1270;22448;-85
2022/05/21 05:33:21;;;;;;;11.20;10.00;;;;;;;16.39;77.07;99386.60;109806;1271;22365;-85
2022/05/21 05:35:52;;;;;;;12.80;11.60;;;;;;;16.37;77.26;99395.05;109791;1272;22411;-84
2022/05/21 05:38:20;;;;;;;12.30;10.50;;;;;;;16.34;77.64;99391.81;109797;1272;22415;-85
2022/05/21 05:40:50;;;;;;;9.00;8.20;;;;;;;16.29;77.82;99393.69;109833;1270;22112;-78
2022/05/21 05:43:18;;;;;;;10.30;9.40;;;;;;;16.26;77.89;99396.30;109758;1273;22576;-83
2022/05/21 05:45:44;;;;;;;11.70;10.30;;;;;;;16.27;78.15;99395.58;109892;1270;22311;-82
2022/05/21 05:48:13;;;;;;;10.90;8.60;;;;;;;16.23;78.67;99380.84;109813;1271;22463;-87
2022/05/21 05:50:40;;;;;;;10.60;8.80;;;;;;;16.20;78.83;99390.37;109713;1270;22480;-86
2022/05/21 05:53:07;;;;;;;10.80;9.60;;;;;;;16.20;78.76;99386.27;109813;1270;22467;-87
2022/05/21 05:55:35;;;;;;;10.30;9.30;;;;;;;16.23;79.05;99386.68;109798;1270;22315;-85
2022/05/21 05:59:48;;;;;;;10.10;9.20;;;;;;;16.23;79.11;99385.44;109815;1272;22343;-85
2022/05/21 06:00:50;;;;;;;9.00;8.10;;;;;;;16.21;79.33;99387.81;109800;1273;23020;-85
2022/05/21 06:03:21;;;;;;;9.90;8.60;;;;;;;16.24;79.28;99391.27;109854;1270;22421;-85
2022/05/21 06:05:49;;;;;;;9.30;8.50;;;;;;;16.24;79.60;99390.91;109801;1270;22350;-85
2022/05/21 06:08:17;;;;;;;11.40;10.10;;;;;;;16.27;79.77;99385.45;109754;1272;23023;-85
2022/05/21 06:10:45;;;;;;;10.00;9.00;;;;;;;16.26;79.46;99383.02;109408;1275;22688;-84
2022/05/21 06:13:13;;;;;;;9.30;8.40;;;;;;;16.29;79.57;99390.85;109519;1275;22424;-85
2022/05/21 06:15:39;;;;;;;13.00;9.80;;;;;;;16.27;79.73;99390.20;108711;1281;22200;-84
2022/05/21 06:18:17;;;;;;;9.40;8.50;;;;;;;16.35;80.24;99392.33;108713;1281;22478;-85
2022/05/21 06:20:44;;;;;;;10.20;9.20;;;;;;;16.39;80.43;99390.52;108956;1281;22540;-85
2022/05/21 06:23:12;;;;;;;9.30;8.40;;;;;;;16.39;80.76;99396.19;108763;1281;23214;-88
2022/05/21 06:25:38;;;;;;;8.00;7.20;;;;;;;16.38;80.50;99391.98;108680;1281;22582;-82
2022/05/21 06:28:05;;;;;;;8.40;7.30;;;;;;;16.38;80.67;99389.88;108468;1284;23193;-84
2022/05/21 06:30:38;;;;;;;8.00;7.10;;;;;;;16.41;80.76;99388.65;108825;1283;22399;-84
2022/05/21 06:33:20;;;;;;;6.80;6.20;;;;;;;16.43;81.02;99395.14;109044;1277;22478;-83
2022/05/21 06:35:48;;;;;;;8.30;7.50;;;;;;;16.43;80.88;99393.35;109747;1277;22371;-84
2022/05/21 06:38:15;;;;;;;7.50;6.20;;;;;;;16.48;81.13;99394.90;109591;1277;22426;-83
2022/05/21 06:40:42;;;;;;;6.50;5.90;;;;;;;16.49;81.11;99394.50;109363;1277;23255;-83
2022/05/21 06:43:09;;;;;;;6.20;5.60;;;;;;;16.52;81.05;99402.17;108651;1284;22450;-84
2022/05/21 06:45:35;;;;;;;7.10;6.40;;;;;;;16.55;80.64;99407.85;108524;1277;22467;-82
2022/05/21 06:48:07;;;;;;;5.20;4.70;;;;;;;16.61;80.77;99418.80;109322;1277;22570;-83
2022/05/21 06:50:37;;;;;;;5.60;4.60;;;;;;;16.64;79.98;99415.96;108853;1280;22585;-83
2022/05/21 06:53:03;;;;;;;5.30;4.80;;;;;;;16.66;78.57;99414.98;109177;1277;23056;-82
2022/05/21 06:55:29;;;;;;;4.60;4.20;;;;;;;16.67;77.48;99420.78;109316;1277;23283;-83
2022/05/21 06:57:56;;;;;;;3.60;3.30;;;;;;;16.71;77.00;99429.66;109292;1277;22366;-83
2022/05/21 07:00:23;;;;;;;3.20;3.00;;;;;;;16.75;75.64;99432.67;109470;1271;22464;-83
2022/05/21 07:02:52;;;;;;;4.00;2.30;;;;;;;16.74;74.32;99450.12;109725;1270;22522;-94
2022/05/21 07:08:24;;;;;;;2.80;2.00;;;;;;;16.85;71.99;99461.70;109722;1271;22374;-83
2022/05/21 07:10:52;;;;;;;4.00;2.00;;;;;;;16.79;70.94;99457.52;109670;1273;22405;-83
2022/05/21 07:13:20;;;;;;;2.50;1.50;;;;;;;16.79;70.97;99463.77;109611;1270;23258;-83
2022/05/21 07:15:49;;;;;;;1.60;1.50;;;;;;;16.83;70.85;99477.95;109773;1270;22436;-81
2022/05/21 07:18:20;;;;;;;1.60;1.30;;;;;;;16.84;70.13;99474.36;109809;1270;22469;-83
2022/05/21 07:20:48;;;;;;;2.80;1.40;;;;;;;16.81;69.99;99469.85;109861;1270;22513;-83
2022/05/21 07:23:14;;;;;;;3.90;1.60;;;;;;;16.79;69.95;99483.11;109810;1273;23151;-83
2022/05/21 07:25:41;;;;;;;1.70;1.60;;;;;;;16.73;69.70;99491.41;109883;1270;22342;-82
2022/05/21 07:28:09;;;;;;;2.90;1.30;;;;;;;16.67;69.66;99499.02;109871;1270;23077;-83
2022/05/21 07:30:37;;;;;;;2.30;1.60;;;;;;;16.61;69.91;99510.30;109815;1272;22427;-82
2022/05/21 07:33:04;;;;;;;1.80;1.70;;;;;;;16.58;69.85;99505.98;109737;1272;22500;-83
2022/05/21 07:35:31;;;;;;;2.80;1.40;;;;;;;16.57;69.78;99508.55;109784;1273;22414;-83
2022/05/21 07:37:57;;;;;;;2.30;1.20;;;;;;;16.53;69.18;99516.73;109812;1273;22428;-83
2022/05/21 07:40:24;;;;;;;5.00;1.40;;;;;;;16.45;68.33;99511.42;109927;1273;22414;-85
2022/05/21 07:42:51;;;;;;;2.40;1.10;;;;;;;16.37;68.28;99527.59;109901;1272;22631;-83
2022/05/21 07:45:19;;;;;;;1.00;1.00;;;;;;;16.33;68.17;99541.29;109883;1270;22260;-82
2022/05/21 07:47:47;;;;;;;1.20;1.00;;;;;;;16.27;67.94;99546.56;109845;1272;22394;-82
2022/05/21 07:50:14;;;;;;;2.40;1.00;;;;;;;16.25;67.90;99547.02;109750;1272;22375;-83
2022/05/21 07:52:42;;;;;;;1.90;1.10;;;;;;;16.24;67.80;99549.91;109808;1271;22506;-83
2022/05/21 07:55:09;;;;;;;5.60;1.20;;;;;;;16.20;67.57;99556.09;109839;1270;22413;-84
2022/05/21 07:57:36;;;;;;;1.10;1.00;;;;;;;16.19;67.65;99560.42;109784;1270;22436;-89
2022/05/21 08:00:05;;;;;;;1.40;1.20;;;;;;;16.10;66.84;99557.27;109839;1271;22359;-83
2022/05/21 08:02:41;;;;;;;1.10;0.90;;;;;;;15.94;65.78;99555.46;109588;1276;23103;-81
2022/05/21 08:05:07;;;;;;;2.20;0.90;;;;;;;15.84;65.93;99559.64;109532;1276;23273;-82
2022/05/21 08:07:34;;;;;;;2.10;1.00;;;;;;;15.78;66.12;99563.44;109550;1276;22415;-81
2022/05/21 08:10:00;;;;;;;2.40;1.00;;;;;;;15.72;65.92;99562.61;109484;1276;22461;-81
2022/05/21 08:12:27;;;;;;;2.20;1.00;;;;;;;15.66;65.76;99568.23;109521;1276;22480;-81
2022/05/21 08:14:56;;;;;;;3.00;0.90;;;;;;;15.59;65.59;99577.02;109676;1276;22693;-87
2022/05/21 08:17:22;;;;;;;3.70;0.90;;;;;;;15.54;65.81;99574.40;109541;1276;22258;-87
2022/05/21 08:19:48;;;;;;;4.60;1.00;;;;;;;15.52;66.01;99583.00;109612;1272;22480;-87
2022/05/21 08:27:45;;;;;;;2.00;0.80;;;;;;;15.80;65.65;99593.52;109468;1276;22468;-86
2022/05/21 08:30:11;;;;;;;4.70;1.00;;;;;;;15.97;64.86;99590.14;109599;1276;22429;-85
2022/05/21 08:32:38;;;;;;;2.20;0.80;;;;;;;16.09;63.31;99610.02;109522;1276;22679;-85
2022/05/21 08:35:05;;;;;;;3.30;0.70;;;;;;;16.14;62.79;99598.81;109632;1276;22546;-85
2022/05/21 08:37:33;;;;;;;3.50;0.70;;;;;;;16.12;61.34;99604.96;109596;1276;22476;-87
2022/05/21 08:40:00;;;;;;;3.30;0.60;;;;;;;16.07;61.04;99603.92;109643;1276;22380;-89
2022/05/21 08:42:42;;;;;;;2.20;0.70;;;;;;;16.04;61.01;99619.15;108788;1281;22447;-89
2022/05/21 08:45:51;;;;;;;3.90;0.80;;;;;;;15.97;59.93;99626.40;109135;1281;22527;-89
2022/05/21 08:48:20;;;;;;;0.80;0.50;;;;;;;15.85;59.47;99628.13;109635;1276;23121;-87
2022/05/21 08:50:51;;;;;;;1.40;0.70;;;;;;;15.78;59.67;99631.04;109623;1277;22413;-90
2022/05/21 08:53:23;;;;;;;3.90;0.90;;;;;;;15.75;59.23;99650.00;109561;1276;22562;-88
2022/05/21 08:55:56;;;;;;;2.80;0.80;;;;;;;15.65;59.22;99641.20;109557;1277;22383;-88
2022/05/21 08:58:34;;;;;;;1.80;0.60;;;;;;;15.61;59.61;99630.90;109289;1278;22508;-89
2022/05/21 09:01:00;;;;;;;1.20;0.90;;;;;;;15.70;59.48;99634.42;109782;1270;22781;-88
2022/05/21 09:03:27;;;;;;;1.50;0.70;;;;;;;15.80;59.58;99628.52;109872;1270;23143;-89
2022/05/21 09:06:22;;;;;;;2.60;0.70;;;;;;;15.89;59.47;99629.55;109806;1270;22391;-90
2022/05/21 09:09:00;;;;;;;1.40;0.70;;;;;;;15.94;58.57;99641.23;109896;1270;22437;-90
2022/05/21 09:11:48;;;;;;;4.90;0.90;;;;;;;15.87;56.74;99629.45;109752;1272;22332;-91
2022/05/21 09:14:36;;;;;;;1.20;0.80;;;;;;;15.83;55.95;99643.96;109846;1270;22403;-89
2022/05/21 09:17:12;;;;;;;1.20;0.60;;;;;;;15.80;56.27;99634.70;109905;1271;22405;-93
2022/05/21 09:19:43;;;;;;;3.50;0.70;;;;;;;15.78;56.21;99630.52;109928;1270;22165;-93
2022/05/21 09:22:13;;;;;;;3.70;0.80;;;;;;;15.79;56.20;99636.91;109946;1270;22536;-91
2022/05/21 09:25:01;;;;;;;4.20;0.60;;;;;;;15.85;55.97;99648.02;109804;1272;22478;-87
2022/05/21 09:27:38;;;;;;;3.30;0.40;;;;;;;15.89;55.29;99642.00;109913;1272;22454;-90
2022/05/21 09:30:26;;;;;;;4.90;0.90;;;;;;;15.96;55.04;99643.46;109838;1274;22403;-89
2022/05/21 09:32:58;;;;;;;1.30;0.70;;;;;;;16.07;54.07;99638.38;109923;1272;22561;-93
2022/05/21 09:35:31;;;;;;;1.00;0.40;;;;;;;16.22;54.11;99646.27;109817;1273;22401;-92
2022/05/21 09:38:14;;;;;;;5.80;0.70;;;;;;;16.38;53.61;99632.91;109854;1272;22411;-92
2022/05/21 09:40:41;;;;;;;2.90;0.80;;;;;;;16.47;53.14;99642.15;109844;1270;22472;-92
2022/05/21 09:46:27;;;;;;;1.00;0.60;;;;;;;16.45;52.85;99653.40;109519;1278;22526;-95
2022/05/21 09:49:25;;;;;;;1.20;0.70;;;;;;;16.33;53.47;99649.50;109606;1277;22354;-91
2022/05/21 09:51:58;;;;;;;1.70;0.60;;;;;;;16.28;54.37;99656.30;109165;1276;22190;-84
2022/05/21 09:54:34;;;;;;;1.70;0.70;;;;;;;16.21;54.81;99662.27;109499;1275;22424;-82
2022/05/21 09:57:04;;;;;;;4.40;0.80;;;;;;;16.18;55.38;99666.14;109454;1276;23437;-84
2022/05/21 09:59:33;;;;;;;5.40;1.00;;;;;;;16.10;55.88;99663.13;109214;1278;22373;-90
2022/05/21 10:02:22;;;;;;;5.90;1.20;;;;;;;16.02;56.39;99668.27;109410;1277;23155;-91
2022/05/21 10:04:53;;;;;;;4.50;1.10;;;;;;;15.93;56.50;99664.88;109368;1278;22398;-89
2022/05/21 10:11:07;;;;;;;2.50;1.10;;;;;;;15.70;56.95;99683.59;109022;1276;22490;-91
2022/05/21 10:13:33;;;;;;;9.20;1.20;;;;;;;15.58;57.32;99678.94;109463;1276;22568;-91
2022/05/21 10:16:15;;;;;;;4.00;1.10;;;;;;;15.55;57.18;99696.27;109539;1276;22494;-91
2022/05/21 10:18:51;;;;;;;5.20;1.20;;;;;;;15.51;57.22;99695.73;109412;1276;22429;-89
2022/05/21 10:21:25;;;;;;;;;;;;;;;15.45;57.14;99714.96;109493;1276;22487;-91
2022/05/21 10:24:15;;;;;;;3.90;1.20;;;;;;;15.40;57.39;99715.33;109627;1276;22616;-89
2022/05/21 10:27:03;;;;;;;3.20;1.10;;;;;;;15.42;57.39;99728.41;109852;1271;22405;-86
2022/05/21 10:29:32;;;;;;;1.70;1.30;;;;;;;15.45;57.01;99723.46;109770;1270;22484;-91
2022/05/21 10:32:20;;;;;;;1.90;0.90;;;;;;;15.48;57.17;99724.60;109829;1270;23202;-89
2022/05/21 10:35:23;;;;;;;4.70;1.20;;;;;;;15.61;57.24;99729.41;104068;1307;545089;-90
2022/05/21 10:38:09;;;;;;;3.90;1.00;;;;;;;15.63;56.49;99731.79;107046;1283;23279;-91
2022/05/21 10:41:03;;;;;;;1.10;0.90;;;;;;;15.55;56.64;99732.14;106877;1284;22519;-93
2022/05/21 10:43:57;;;;;;;5.50;0.90;;;;;;;15.48;56.92;99736.83;106263;1289;22580;-89
2022/05/21 10:46:41;;;;;;;2.10;1.00;;;;;;;15.41;57.29;99748.80;105469;1296;25315;-86
2022/05/21 10:49:33;;;;;;;1.00;0.90;;;;;;;15.27;57.66;99748.10;105719;1294;186186;-93
2022/05/21 10:52:17;;;;;;;1.90;1.00;;;;;;;15.21;57.90;99753.12;105589;1294;23201;-92
2022/05/21 10:55:27;;;;;;;2.70;0.90;;;;;;;15.17;58.24;99757.36;107053;1274;24368;-92
2022/05/21 10:58:23;;;;;;;2.30;1.10;;;;;;;15.15;58.37;99749.45;106310;1287;22619;-92
2022/05/21 11:01:09;;;;;;;1.40;1.10;;;;;;;15.24;58.22;99752.64;105825;1289;22596;-92
2022/05/21 11:04:10;;;;;;;3.00;1.00;;;;;;;15.60;57.70;99753.23;106271;1287;24151;-84
2022/05/21 11:07:09;;;;;;;3.30;0.90;;;;;;;15.97;56.38;99742.83;105449;1287;23000;-92
2022/05/21 11:10:05;;;;;;;1.80;0.90;;;;;;;16.32;55.64;99748.52;105599;1287;25672;-84
2022/05/21 11:12:59;;;;;;;3.80;1.00;;;;;;;16.78;55.30;99757.16;106436;1280;22724;-83
2022/05/21 11:15:58;;;;;;;3.10;0.90;;;;;;;17.00;54.54;99760.60;105683;1286;22580;-85
2022/05/21 11:18:36;;;;;;;4.10;1.10;;;;;;;16.90;53.77;99763.00;105283;1287;22667;-82
2022/05/21 11:21:07;;;;;;;1.80;0.80;;;;;;;16.69;53.26;99766.65;105422;1286;26171;-82
2022/05/21 11:23:46;;;;;;;4.30;0.80;;;;;;;16.49;52.51;99778.52;105456;1286;24273;-76
2022/05/21 11:26:57;;;;;;;1.70;0.50;;;;;;;16.31;52.58;99768.43;105039;1286;22560;-77
2022/05/21 11:29:27;;;;;;;1.10;0.60;;;;;;;16.18;51.93;99762.77;104881;1287;23146;-81
2022/05/21 11:37:52;;;;;;;1.50;0.80;;;;;;;15.83;52.74;99795.80;105480;1284;22712;-82
2022/05/21 11:40:52;;;;;;;1.60;0.90;;;;;;;15.69;53.12;99794.90;105238;1283;22754;-81
2022/05/21 11:43:21;;;;;;;2.10;0.70;;;;;;;15.69;53.51;99816.21;105013;1289;24294;-79
2022/05/21 11:46:00;;;;;;;4.20;1.10;;;;;;;15.72;53.87;99818.39;104652;1289;25483;-81
2022/05/21 11:48:29;;;;;;;2.90;0.80;;;;;;;15.80;53.89;99812.77;104843;1287;25507;-81
2022/05/21 11:51:19;;;;;;;2.40;0.70;;;;;;;15.89;53.86;99808.34;104947;1287;24213;-83
2022/05/21 11:53:46;;;;;;;3.60;0.90;;;;;;;15.98;53.34;99811.37;105563;1281;25525;-80
2022/05/21 11:56:14;;;;;;;4.00;1.20;;;;;;;15.97;52.78;99804.83;105215;1283;23977;-81
2022/05/21 11:58:59;;;;;;;3.00;1.10;;;;;;;15.99;53.05;99812.92;105220;1281;22865;-81
2022/05/21 12:01:38;;;;;;;1.20;0.90;;;;;;;16.06;52.83;99812.46;105642;1277;22845;-82
2022/05/21 12:04:21;;;;;;;6.20;1.00;;;;;;;16.12;52.86;99808.15;106038;1274;23254;-81
2022/05/21 12:06:48;;;;;;;0.90;0.90;;;;;;;16.13;52.81;99805.97;106082;1274;25365;-78
2022/05/21 12:09:28;;;;;;;2.20;0.70;;;;;;;16.09;52.95;99812.89;106153;1277;22532;-82
2022/05/21 12:12:24;;;;;;;2.80;0.80;;;;;;;16.04;52.92;99800.14;106236;1274;24248;-84
2022/05/21 12:15:16;;;;;;;1.70;0.80;;;;;;;15.94;53.17;99825.88;106907;1274;24425;-83
2022/05/21 12:17:57;;;;;;;1.30;0.60;;;;;;;15.89;53.77;99826.81;109254;1274;22535;-83
2022/05/21 12:20:43;;;;;;;1.60;0.60;;;;;;;15.87;53.41;99829.54;107291;1274;22964;-87